Time;durP1;ratioP1;P1;durP2;ratioP2;P2;SDS_P1;SDS_P2;PMS_P1;PMS_P2;Temp;Humidity;BMP_temperature;BMP_pressure;BME280_temperature;BME280_humidity;BME280_pressure;Samples;Min_cycle;Max_cycle;Signal;HPM_P1;HPM_P2
2022/06/24 00:00:48;;;;;;;15.55;6.60;;;;;;;22.02;75.33;100481.91;5039426;28;20044;-84
2022/06/24 00:03:18;;;;;;;17.23;8.05;;;;;;;21.62;81.53;100484.22;5042728;28;20486;-84
2022/06/24 00:05:45;;;;;;;19.13;8.30;;;;;;;21.10;87.13;100480.53;5039880;28;20029;-84
2022/06/24 00:08:11;;;;;;;22.45;10.00;;;;;;;20.67;92.55;100484.81;5036938;28;20032;-82
2022/06/24 00:10:36;;;;;;;16.30;10.13;;;;;;;20.44;94.63;100510.53;5043084;28;20395;-82
2022/06/24 00:13:03;;;;;;;19.65;10.98;;;;;;;20.27;98.27;100518.41;5040507;28;20032;-82
2022/06/24 00:15:34;;;;;;;24.15;12.07;;;;;;;20.03;100.00;100529.75;5043171;28;20170;-83
2022/06/24 00:18:16;;;;;;;20.73;14.02;;;;;;;19.75;100.00;100563.06;5041408;28;20035;-82
2022/06/24 00:20:46;;;;;;;25.85;17.52;;;;;;;19.62;100.00;100588.53;5040783;28;20025;-81
2022/06/24 00:23:16;;;;;;;30.27;18.88;;;;;;;19.55;100.00;100584.66;5039741;28;20025;-83
2022/06/24 00:25:42;;;;;;;29.50;20.63;;;;;;;19.69;100.00;100591.50;5039418;28;20044;-82
2022/06/24 00:28:09;;;;;;;32.38;21.08;;;;;;;19.71;100.00;100597.59;5030153;28;20032;-83
2022/06/24 00:31:05;;;;;;;25.98;19.95;;;;;;;19.67;100.00;100590.78;5041607;28;20031;-83
2022/06/24 00:33:35;;;;;;;27.13;20.13;;;;;;;19.74;100.00;100585.69;5034769;28;20034;-83
2022/06/24 00:36:01;;;;;;;32.95;23.05;;;;;;;19.80;100.00;100585.09;5040895;28;20125;-82
2022/06/24 00:38:30;;;;;;;35.90;24.65;;;;;;;19.78;100.00;100577.16;5046058;28;20104;-82
2022/06/24 00:41:00;;;;;;;30.17;23.63;;;;;;;19.70;100.00;100573.47;5039240;28;20044;-83
2022/06/24 00:43:33;;;;;;;30.73;24.75;;;;;;;19.66;100.00;100583.69;5040875;28;20100;-83
2022/06/24 00:46:24;;;;;;;25.55;22.23;;;;;;;19.63;100.00;100578.56;5034903;28;20048;-83
2022/06/24 00:48:56;;;;;;;26.80;22.77;;;;;;;19.64;100.00;100580.28;5040926;28;20614;-82
2022/06/24 00:51:23;;;;;;;29.65;23.00;;;;;;;19.62;100.00;100577.72;5042439;28;20371;-82
2022/06/24 00:53:50;;;;;;;27.08;22.52;;;;;;;19.65;100.00;100560.41;5032834;28;20041;-82
2022/06/24 00:56:19;;;;;;;24.83;20.45;;;;;;;19.50;100.00;100551.84;5034676;28;20033;-83
2022/06/24 00:58:55;;;;;;;25.23;19.15;;;;;;;19.31;100.00;100539.22;5039686;28;20017;-82
2022/06/24 01:01:27;;;;;;;26.33;20.90;;;;;;;19.14;100.00;100538.06;5034663;28;20021;-83
2022/06/24 01:03:54;;;;;;;24.52;20.00;;;;;;;19.02;100.00;100524.81;5028811;28;20112;-82
2022/06/24 01:06:20;;;;;;;24.30;20.92;;;;;;;18.86;100.00;100507.34;5038227;28;20129;-83
2022/06/24 01:08:45;;;;;;;25.52;21.70;;;;;;;18.85;100.00;100510.19;5038562;28;20129;-83
2022/06/24 01:11:11;;;;;;;26.17;21.77;;;;;;;18.84;100.00;100512.03;5041945;28;20036;-83
2022/06/24 01:13:36;;;;;;;19.58;15.52;;;;;;;18.70;100.00;100500.81;5041603;28;20025;-84
2022/06/24 01:16:01;;;;;;;14.18;11.32;;;;;;;18.60;100.00;100503.41;5042665;28;20049;-83
2022/06/24 01:18:27;;;;;;;11.18;9.25;;;;;;;18.46;100.00;100506.50;5033306;28;20025;-84
2022/06/24 01:20:52;;;;;;;11.75;9.68;;;;;;;18.32;100.00;100505.91;5033235;28;20021;-83
2022/06/24 01:23:25;;;;;;;12.88;9.40;;;;;;;18.28;100.00;100515.25;5035159;28;20383;-84
2022/06/24 01:25:51;;;;;;;11.55;9.85;;;;;;;18.17;100.00;100516.19;5035657;28;20043;-84
2022/06/24 01:28:16;;;;;;;11.13;10.02;;;;;;;18.23;100.00;100522.88;5038752;28;20025;-84
2022/06/24 01:30:41;;;;;;;11.38;9.75;;;;;;;18.26;100.00;100521.75;5039539;28;20095;-83
2022/06/24 01:33:06;;;;;;;9.82;8.82;;;;;;;18.13;100.00;100519.28;5042943;28;20029;-84
2022/06/24 01:35:32;;;;;;;8.90;7.45;;;;;;;18.11;100.00;100521.28;5044388;28;20029;-84
2022/06/24 01:37:58;;;;;;;9.65;7.10;;;;;;;18.04;100.00;100510.16;5040557;28;20116;-83
2022/06/24 01:40:23;;;;;;;6.60;5.25;;;;;;;17.88;100.00;100504.41;5046268;28;20456;-84
2022/06/24 01:42:48;;;;;;;6.30;5.28;;;;;;;17.77;100.00;100505.34;5047952;28;20032;-83
2022/06/24 01:45:14;;;;;;;5.90;4.50;;;;;;;17.73;100.00;100484.19;5055666;28;20100;-84
2022/06/24 01:47:39;;;;;;;5.00;4.53;;;;;;;17.66;100.00;100484.69;5067234;28;20049;-83
2022/06/24 01:50:05;;;;;;;4.90;4.10;;;;;;;17.55;100.00;100487.44;5071806;28;20036;-82
2022/06/24 01:52:30;;;;;;;4.75;4.18;;;;;;;17.54;100.00;100493.81;5070085;28;20033;-82
2022/06/24 01:54:55;;;;;;;4.25;3.78;;;;;;;17.49;100.00;100492.53;5073160;28;20040;-83
2022/06/24 01:57:21;;;;;;;4.15;3.72;;;;;;;17.42;100.00;100478.72;5058200;28;20032;-83
2022/06/24 01:59:46;;;;;;;4.63;3.63;;;;;;;17.39;100.00;100479.00;5046548;28;20029;-83
2022/06/24 02:02:12;;;;;;;3.53;3.08;;;;;;;17.41;100.00;100488.66;5051594;28;20096;-83
2022/06/24 02:04:37;;;;;;;3.60;3.08;;;;;;;17.42;100.00;100495.72;5050203;28;20052;-83
2022/06/24 02:07:03;;;;;;;4.35;3.05;;;;;;;17.35;100.00;100483.78;5041564;28;20047;-83
2022/06/24 02:09:28;;;;;;;3.20;2.80;;;;;;;17.34;100.00;100491.97;5050259;28;20028;-83
2022/06/24 02:14:38;;;;;;;4.18;2.85;;;;;;;17.21;100.00;100494.84;5051039;28;20082;-83
2022/06/24 02:17:03;;;;;;;3.20;2.28;;;;;;;17.27;100.00;100488.13;5050351;28;20433;-82
2022/06/24 02:19:29;;;;;;;3.42;2.38;;;;;;;17.24;100.00;100480.31;5048531;28;20017;-82
2022/06/24 02:21:54;;;;;;;2.80;2.47;;;;;;;17.22;100.00;100490.31;5045560;28;20033;-83
2022/06/24 02:24:19;;;;;;;3.30;2.40;;;;;;;17.11;100.00;100488.56;5047329;28;20013;-83
2022/06/24 02:26:45;;;;;;;3.08;2.40;;;;;;;17.16;100.00;100494.38;5042920;28;20502;-83
2022/06/24 02:29:11;;;;;;;4.00;2.53;;;;;;;17.22;100.00;100483.09;5035185;28;20124;-81
2022/06/24 02:31:40;;;;;;;2.63;2.28;;;;;;;17.24;100.00;100473.09;5047853;28;20060;-82
2022/06/24 02:34:05;;;;;;;3.08;2.05;;;;;;;17.20;100.00;100471.63;5042057;28;20029;-81
2022/06/24 02:36:30;;;;;;;3.28;2.53;;;;;;;17.14;100.00;100470.34;5047042;28;20482;-82
2022/06/24 02:38:56;;;;;;;3.38;2.35;;;;;;;17.16;100.00;100472.88;5048182;28;20107;-82
2022/06/24 02:41:21;;;;;;;3.95;2.30;;;;;;;16.97;100.00;100454.75;5047050;28;20049;-82
2022/06/24 02:43:46;;;;;;;3.13;2.40;;;;;;;17.08;100.00;100460.06;5048148;28;20359;-81
2022/06/24 02:46:14;;;;;;;4.13;2.28;;;;;;;17.07;100.00;100457.53;5048235;28;20025;-82
2022/06/24 02:48:42;;;;;;;2.63;2.08;;;;;;;17.04;100.00;100449.72;5048846;28;20017;-82
2022/06/24 02:51:09;;;;;;;3.13;2.20;;;;;;;17.09;100.00;100453.72;5045623;28;20067;-82
2022/06/24 02:53:35;;;;;;;2.67;2.20;;;;;;;17.08;100.00;100451.16;5047983;28;20060;-82
2022/06/24 02:56:03;;;;;;;3.92;2.28;;;;;;;17.00;100.00;100445.56;5049071;28;20061;-82
2022/06/24 02:58:33;;;;;;;4.82;2.15;;;;;;;16.93;100.00;100445.25;5048663;28;20536;-82
2022/06/24 03:00:59;;;;;;;2.55;2.20;;;;;;;16.98;100.00;100436.78;5046735;28;20102;-82
2022/06/24 03:03:25;;;;;;;2.67;2.42;;;;;;;17.10;100.00;100441.16;5044804;28;20067;-82
2022/06/24 03:05:51;;;;;;;3.45;2.33;;;;;;;17.03;100.00;100423.81;5048482;28;20044;-82
2022/06/24 03:08:18;;;;;;;2.65;2.25;;;;;;;17.05;100.00;100420.00;5046232;28;20037;-82
2022/06/24 03:10:44;;;;;;;4.05;2.50;;;;;;;16.97;100.00;100427.00;5047441;28;20017;-82
2022/06/24 03:13:10;;;;;;;3.63;2.00;;;;;;;16.89;100.00;100417.78;5045828;28;20033;-82
2022/06/24 03:15:36;;;;;;;2.28;2.08;;;;;;;16.83;100.00;100420.94;5047949;28;20124;-82
2022/06/24 03:18:02;;;;;;;2.30;2.10;;;;;;;16.80;100.00;100414.97;5047980;28;20037;-82
2022/06/24 03:20:28;;;;;;;2.13;1.92;;;;;;;16.75;100.00;100406.44;5045709;28;20024;-82
2022/06/24 03:22:53;;;;;;;3.03;2.17;;;;;;;16.76;100.00;100406.34;5046453;28;20043;-82
2022/06/24 03:25:19;;;;;;;3.45;2.40;;;;;;;16.60;100.00;100398.66;5034462;28;20079;-82
2022/06/24 03:27:44;;;;;;;2.97;2.63;;;;;;;16.60;100.00;100411.25;5044972;28;20028;-82
2022/06/24 03:30:11;;;;;;;2.97;2.30;;;;;;;16.72;100.00;100403.97;5047648;28;20067;-82
2022/06/24 03:32:37;;;;;;;3.05;2.67;;;;;;;16.78;100.00;100390.06;5046988;28;20049;-82
2022/06/24 03:35:03;;;;;;;3.50;2.85;;;;;;;16.94;100.00;100403.94;5048044;28;20129;-82
2022/06/24 03:37:29;;;;;;;3.10;2.80;;;;;;;17.02;100.00;100396.06;5047221;28;20033;-82
2022/06/24 03:39:55;;;;;;;5.00;3.10;;;;;;;17.10;100.00;100392.75;5044255;28;20463;-82
2022/06/24 03:42:20;;;;;;;3.50;3.20;;;;;;;17.15;100.00;100399.41;5047957;28;20067;-82
2022/06/24 03:44:46;;;;;;;5.03;3.25;;;;;;;17.12;100.00;100394.28;5046155;28;20117;-82
2022/06/24 03:47:11;;;;;;;3.70;3.20;;;;;;;17.16;100.00;100408.34;5042966;28;20037;-82
2022/06/24 03:49:37;;;;;;;4.70;3.72;;;;;;;17.22;100.00;100421.25;5047732;28;20041;-82
2022/06/24 03:52:02;;;;;;;4.03;3.63;;;;;;;17.22;100.00;100421.25;5044781;28;20100;-81
2022/06/24 03:54:28;;;;;;;4.88;3.78;;;;;;;17.26;100.00;100419.16;5042607;28;20032;-82
2022/06/24 03:56:53;;;;;;;4.32;3.75;;;;;;;17.28;100.00;100411.81;5041629;28;20124;-82
2022/06/24 03:59:18;;;;;;;4.50;3.67;;;;;;;17.36;100.00;100433.53;5045826;28;20129;-82
2022/06/24 04:01:44;;;;;;;6.82;3.88;;;;;;;17.36;100.00;100436.22;5043268;28;20151;-82
2022/06/24 04:04:09;;;;;;;4.72;4.15;;;;;;;17.33;100.00;100437.31;5040752;28;20454;-83
2022/06/24 04:06:34;;;;;;;5.97;4.60;;;;;;;17.34;100.00;100432.78;5037680;28;20237;-82
2022/06/24 04:09:00;;;;;;;5.10;4.60;;;;;;;17.44;100.00;100444.50;5037097;28;20364;-82
2022/06/24 04:11:25;;;;;;;4.68;4.28;;;;;;;17.54;100.00;100439.16;5044212;28;20031;-82
2022/06/24 04:13:51;;;;;;;4.60;4.20;;;;;;;17.54;100.00;100444.53;5036776;28;20028;-81
2022/06/24 04:16:16;;;;;;;6.38;4.68;;;;;;;17.53;100.00;100441.00;5034325;28;20140;-82
2022/06/24 04:18:41;;;;;;;7.68;5.00;;;;;;;17.56;100.00;100443.44;5034941;28;20413;-81
2022/06/24 04:21:15;;;;;;;7.07;5.05;;;;;;;17.47;100.00;100444.22;5042786;28;20451;-83
2022/06/24 04:23:42;;;;;;;6.72;4.95;;;;;;;17.46;100.00;100445.19;5039460;28;20474;-83
2022/06/24 04:26:08;;;;;;;5.53;4.63;;;;;;;17.47;100.00;100448.75;5037513;28;20025;-82
2022/06/24 04:28:34;;;;;;;6.05;5.18;;;;;;;17.45;100.00;100450.72;5033169;28;20057;-82
2022/06/24 04:30:59;;;;;;;6.38;4.93;;;;;;;17.39;100.00;100442.19;5039752;28;20036;-82
2022/06/24 04:33:25;;;;;;;5.70;4.97;;;;;;;17.42;100.00;100438.38;5040097;28;20075;-83
2022/06/24 04:35:50;;;;;;;6.70;5.57;;;;;;;17.48;100.00;100445.09;5042235;28;20103;-82
2022/06/24 04:38:15;;;;;;;5.75;5.25;;;;;;;17.47;100.00;100440.66;5038490;28;20036;-82
2022/06/24 04:40:41;;;;;;;5.97;5.32;;;;;;;17.43;100.00;100432.88;5043977;28;20422;-82
2022/06/24 04:43:07;;;;;;;6.57;5.28;;;;;;;17.49;100.00;100452.16;5042685;28;20056;-82
2022/06/24 04:45:33;;;;;;;7.18;5.38;;;;;;;17.47;100.00;100449.59;5036088;28;20076;-82
2022/06/24 04:47:59;;;;;;;5.80;5.20;;;;;;;17.58;100.00;100454.06;5044375;28;20471;-81
2022/06/24 04:50:24;;;;;;;7.63;5.90;;;;;;;17.63;100.00;100454.50;5046267;28;20052;-82
2022/06/24 04:52:49;;;;;;;6.45;5.82;;;;;;;17.64;100.00;100440.94;5038329;28;20518;-82
2022/06/24 04:55:15;;;;;;;7.85;5.57;;;;;;;17.64;100.00;100448.13;5034364;28;20031;-82
2022/06/24 04:57:40;;;;;;;6.65;5.57;;;;;;;17.72;100.00;100442.09;5042920;28;20087;-82
2022/06/24 05:00:06;;;;;;;7.47;5.50;;;;;;;17.75;100.00;100466.09;5040232;28;20076;-82
2022/06/24 05:02:31;;;;;;;6.93;5.78;;;;;;;17.79;100.00;100454.06;5043485;28;20116;-82
2022/06/24 05:04:57;;;;;;;6.45;5.85;;;;;;;17.82;100.00;100457.34;5046027;28;20103;-82
2022/06/24 05:07:22;;;;;;;6.07;5.13;;;;;;;17.78;100.00;100446.97;5047903;28;20389;-82
2022/06/24 05:09:47;;;;;;;7.75;5.57;;;;;;;17.82;100.00;100460.03;5039538;28;20471;-83
2022/06/24 05:12:13;;;;;;;6.38;5.57;;;;;;;17.93;100.00;100464.47;5044248;28;20017;-83
2022/06/24 05:14:38;;;;;;;8.50;5.78;;;;;;;17.95;100.00;100458.97;5045539;28;20108;-82
2022/06/24 05:17:04;;;;;;;8.30;6.20;;;;;;;17.94;100.00;100468.88;5045954;28;20067;-82
2022/06/24 05:19:29;;;;;;;7.25;6.30;;;;;;;17.98;100.00;100467.63;5039199;28;20116;-81
2022/06/24 05:21:55;;;;;;;8.20;6.55;;;;;;;18.07;100.00;100479.44;5045218;28;20485;-82
2022/06/24 05:24:22;;;;;;;8.55;6.03;;;;;;;18.05;100.00;100470.63;5043159;28;20033;-81
2022/06/24 05:26:47;;;;;;;7.05;6.18;;;;;;;18.09;100.00;100474.75;5064487;28;20022;-81
2022/06/24 05:29:13;;;;;;;9.32;7.28;;;;;;;18.10;100.00;100482.72;5066850;28;20040;-81
2022/06/24 05:31:38;;;;;;;7.80;7.00;;;;;;;18.13;100.00;100486.97;5065860;28;20069;-82
2022/06/24 05:34:04;;;;;;;9.40;7.72;;;;;;;18.06;100.00;100478.59;5066261;28;20044;-82
2022/06/24 05:36:30;;;;;;;10.13;8.65;;;;;;;18.05;100.00;100476.00;5068267;28;20040;-82
2022/06/24 05:38:55;;;;;;;11.02;9.85;;;;;;;18.03;100.00;100473.47;5053418;28;20395;-82
2022/06/24 05:41:22;;;;;;;11.43;10.07;;;;;;;17.98;100.00;100470.31;5036605;28;20038;-82
2022/06/24 05:43:47;;;;;;;12.23;10.80;;;;;;;18.01;100.00;100474.56;5048771;28;20033;-82
2022/06/24 05:46:13;;;;;;;14.07;11.32;;;;;;;18.07;100.00;100474.03;5063874;28;20039;-82
2022/06/24 05:48:39;;;;;;;12.38;11.05;;;;;;;18.08;100.00;100473.06;5056983;28;20021;-82
2022/06/24 05:51:13;;;;;;;14.20;12.13;;;;;;;18.22;100.00;100486.13;5046526;28;20049;-82
2022/06/24 05:56:23;;;;;;;12.90;11.50;;;;;;;18.28;100.00;100474.84;5059124;28;20043;-83
2022/06/24 05:58:49;;;;;;;12.82;11.35;;;;;;;18.25;100.00;100468.88;5041290;28;20026;-82
2022/06/24 06:01:16;;;;;;;14.07;12.57;;;;;;;18.13;100.00;100466.25;5039906;28;20067;-84
2022/06/24 06:03:41;;;;;;;15.63;11.82;;;;;;;18.10;100.00;100457.59;5034375;28;20032;-85
2022/06/24 06:06:07;;;;;;;14.00;11.98;;;;;;;18.07;100.00;100461.44;5049286;28;20025;-84
2022/06/24 06:08:34;;;;;;;14.07;12.15;;;;;;;18.00;100.00;100451.34;5048986;28;20476;-84
2022/06/24 06:10:59;;;;;;;15.23;12.65;;;;;;;18.06;100.00;100454.34;5049244;28;20029;-84
2022/06/24 06:13:25;;;;;;;14.23;12.45;;;;;;;18.09;100.00;100456.75;5047053;28;20406;-84
2022/06/24 06:15:50;;;;;;;15.90;12.43;;;;;;;18.09;100.00;100456.75;5047004;28;20036;-84
2022/06/24 06:18:15;;;;;;;13.68;12.30;;;;;;;18.03;100.00;100468.06;5044123;28;20032;-85
2022/06/24 06:20:40;;;;;;;14.48;12.63;;;;;;;18.04;100.00;100458.16;5042839;28;20029;-85
2022/06/24 06:23:06;;;;;;;14.77;13.30;;;;;;;18.10;100.00;100466.56;5045209;28;20457;-84
2022/06/24 06:25:32;;;;;;;15.85;13.50;;;;;;;18.17;100.00;100472.22;5039971;28;20051;-85
2022/06/24 06:27:57;;;;;;;16.48;13.77;;;;;;;18.23;100.00;100474.41;5048884;28;20025;-85
2022/06/24 06:30:22;;;;;;;18.75;14.70;;;;;;;18.29;100.00;100476.53;5048385;28;20039;-85
2022/06/24 06:32:48;;;;;;;15.48;13.65;;;;;;;18.31;100.00;100477.25;5041765;28;20035;-84
2022/06/24 06:35:13;;;;;;;18.10;15.15;;;;;;;18.32;100.00;100468.19;5049201;28;20033;-84
2022/06/24 06:37:39;;;;;;;17.85;14.90;;;;;;;18.42;100.00;100478.97;5038581;28;20040;-86
2022/06/24 06:40:04;;;;;;;20.73;16.55;;;;;;;18.46;100.00;100469.63;5043424;28;20103;-84
2022/06/24 06:42:30;;;;;;;17.98;15.75;;;;;;;18.39;100.00;100482.81;5039887;28;20080;-85
2022/06/24 06:44:55;;;;;;;19.98;16.27;;;;;;;18.32;100.00;100483.50;5040993;28;20399;-83
2022/06/24 06:47:21;;;;;;;18.88;16.60;;;;;;;18.27;100.00;100483.06;5043400;28;20068;-84
2022/06/24 06:49:46;;;;;;;20.83;17.05;;;;;;;18.25;100.00;100483.19;5044485;28;20032;-84
2022/06/24 06:52:11;;;;;;;20.70;17.00;;;;;;;18.25;100.00;100488.56;5038508;28;20021;-84
2022/06/24 06:54:37;;;;;;;20.50;17.05;;;;;;;18.19;100.00;100494.50;5038102;28;20048;-83
2022/06/24 06:57:03;;;;;;;21.60;17.58;;;;;;;18.11;100.00;100489.81;5034566;28;20036;-80
2022/06/24 06:59:28;;;;;;;24.02;18.10;;;;;;;18.06;100.00;100483.97;5036368;28;20165;-81
2022/06/24 07:01:53;;;;;;;22.65;18.40;;;;;;;18.09;100.00;100486.38;5036656;28;20490;-80
2022/06/24 07:04:18;;;;;;;21.83;18.77;;;;;;;18.06;100.00;100470.50;5040903;28;20033;-80
2022/06/24 07:06:44;;;;;;;22.02;17.63;;;;;;;18.03;100.00;100456.47;5042366;28;20025;-80
2022/06/24 07:09:10;;;;;;;22.35;18.48;;;;;;;18.02;100.00;100452.06;5041562;28;20075;-81
2022/06/24 07:11:35;;;;;;;22.58;19.58;;;;;;;17.92;100.00;100439.38;5042123;28;20149;-80
2022/06/24 07:14:01;;;;;;;21.80;19.30;;;;;;;18.06;100.00;100450.81;5049505;28;20033;-80
2022/06/24 07:16:26;;;;;;;22.27;19.77;;;;;;;18.11;100.00;100444.00;5042103;28;20033;-81
2022/06/24 07:18:52;;;;;;;22.60;20.23;;;;;;;18.10;100.00;100431.53;5046883;28;20048;-81
2022/06/24 07:21:17;;;;;;;22.25;19.98;;;;;;;18.04;100.00;100424.00;5042980;28;20027;-81
2022/06/24 07:23:42;;;;;;;25.55;19.88;;;;;;;18.03;100.00;100435.75;5037756;28;20029;-81
2022/06/24 07:26:08;;;;;;;23.10;20.17;;;;;;;18.00;100.00;100443.25;5032469;28;20032;-81
2022/06/24 07:28:33;;;;;;;22.77;20.33;;;;;;;18.09;100.00;100443.28;5042653;28;20029;-81
2022/06/24 07:30:59;;;;;;;25.27;20.45;;;;;;;18.10;100.00;100436.03;5032939;28;20491;-81
2022/06/24 07:33:24;;;;;;;26.92;20.35;;;;;;;18.15;100.00;100448.13;5044682;28;20056;-80
2022/06/24 07:35:50;;;;;;;22.55;20.10;;;;;;;18.17;100.00;100458.75;5037287;28;20799;-81
2022/06/24 07:38:15;;;;;;;23.15;20.13;;;;;;;18.21;100.00;100460.19;5036428;28;20033;-80
2022/06/24 07:40:41;;;;;;;23.27;20.52;;;;;;;18.25;100.00;100477.78;5030753;28;20036;-81
2022/06/24 07:43:07;;;;;;;24.23;21.25;;;;;;;18.21;100.00;100472.81;5036775;28;20033;-81
2022/06/24 07:45:33;;;;;;;23.13;20.42;;;;;;;18.23;100.00;100482.47;5036192;28;20120;-81
2022/06/24 07:47:59;;;;;;;23.70;21.13;;;;;;;18.28;100.00;100484.75;5042135;28;20037;-80
2022/06/24 07:50:24;;;;;;;23.80;21.27;;;;;;;18.30;100.00;100478.22;5037450;28;20048;-81
2022/06/24 07:52:50;;;;;;;24.77;22.02;;;;;;;18.34;100.00;100482.34;5038971;28;20033;-81
2022/06/24 07:57:59;;;;;;;25.50;22.85;;;;;;;18.37;100.00;100482.09;5039186;28;20398;-81
2022/06/24 08:00:25;;;;;;;25.35;22.23;;;;;;;18.39;100.00;100480.13;5031265;28;20026;-80
2022/06/24 08:02:50;;;;;;;28.63;24.13;;;;;;;18.46;100.00;100474.16;5039465;28;20107;-81
2022/06/24 08:05:16;;;;;;;27.38;24.20;;;;;;;18.51;100.00;100482.69;5043924;28;20026;-81
2022/06/24 08:07:43;;;;;;;28.33;25.23;;;;;;;18.63;100.00;100476.19;5045874;28;20056;-81
2022/06/24 08:10:09;;;;;;;28.90;25.17;;;;;;;18.81;100.00;100476.38;5045702;28;20029;-81
2022/06/24 08:12:34;;;;;;;27.30;24.40;;;;;;;18.90;100.00;100484.50;5044611;28;20075;-81
2022/06/24 08:14:59;;;;;;;31.10;27.83;;;;;;;18.76;100.00;100468.72;5035934;28;20029;-81
2022/06/24 08:17:24;;;;;;;30.48;27.17;;;;;;;18.70;100.00;100482.78;5038871;28;20086;-81
2022/06/24 08:19:50;;;;;;;31.90;27.60;;;;;;;18.66;100.00;100476.78;5038003;28;20034;-81
2022/06/24 08:22:15;;;;;;;31.40;27.20;;;;;;;18.74;100.00;100478.81;5034232;28;20049;-81
2022/06/24 08:24:40;;;;;;;33.28;27.48;;;;;;;18.91;100.00;100480.81;5027548;28;20430;-81
2022/06/24 08:27:06;;;;;;;30.23;27.00;;;;;;;19.05;100.00;100481.38;5041952;28;20036;-86
2022/06/24 08:29:31;;;;;;;27.63;23.88;;;;;;;19.19;100.00;100477.41;5043442;28;20028;-82
2022/06/24 08:31:57;;;;;;;30.67;25.63;;;;;;;19.42;100.00;100476.13;5037622;28;20029;-82
2022/06/24 08:34:22;;;;;;;29.50;26.33;;;;;;;19.76;100.00;100481.06;5031850;28;20022;-81
2022/06/24 08:36:48;;;;;;;26.02;23.23;;;;;;;20.02;100.00;100486.66;5032541;28;20124;-82
2022/06/24 08:39:13;;;;;;;27.52;24.58;;;;;;;20.17;100.00;100487.06;5029373;28;20378;-81
2022/06/24 08:41:39;;;;;;;24.80;22.15;;;;;;;20.25;97.35;100482.59;5035786;28;20411;-82
2022/06/24 08:44:04;;;;;;;25.70;23.00;;;;;;;20.31;97.09;100490.09;5041845;28;20036;-82
2022/06/24 08:46:30;;;;;;;24.90;22.30;;;;;;;20.28;94.91;100487.72;5035458;28;20380;-82
2022/06/24 08:48:58;;;;;;;24.42;21.85;;;;;;;20.19;95.06;100475.09;5034779;28;20025;-82
2022/06/24 08:51:24;;;;;;;26.30;23.45;;;;;;;20.28;95.91;100470.66;5039952;28;20107;-82
2022/06/24 08:54:00;;;;;;;24.58;22.05;;;;;;;21.27;94.63;100474.25;5043507;28;20147;-82
2022/06/24 08:56:26;;;;;;;24.38;21.88;;;;;;;23.49;85.83;100468.78;5040560;28;20537;-82
2022/06/24 08:58:53;;;;;;;20.20;18.27;;;;;;;25.60;77.12;100471.56;5045216;28;20025;-82
2022/06/24 09:01:18;;;;;;;17.63;15.73;;;;;;;26.66;66.88;100469.53;5055306;28;20033;-82
2022/06/24 09:03:44;;;;;;;17.55;15.77;;;;;;;26.85;63.57;100470.81;5051377;28;20023;-81
2022/06/24 09:06:14;;;;;;;17.73;15.77;;;;;;;26.38;64.73;100458.44;5057184;28;20048;-81
2022/06/24 09:08:44;;;;;;;17.17;15.35;;;;;;;25.69;67.79;100473.16;5057400;28;20025;-81
2022/06/24 09:11:10;;;;;;;20.95;18.75;;;;;;;25.14;71.00;100474.31;5053337;28;20022;-82
2022/06/24 09:13:52;;;;;;;17.67;15.85;;;;;;;24.67;74.01;100467.13;5043332;28;20041;-84
2022/06/24 09:16:18;;;;;;;17.25;15.57;;;;;;;24.26;72.05;100467.28;5035305;28;20025;-82
2022/06/24 09:18:59;;;;;;;15.02;13.52;;;;;;;24.39;72.82;100472.19;5037527;28;20497;-81
2022/06/24 09:21:32;;;;;;;14.02;12.70;;;;;;;24.13;72.05;100477.03;5044977;28;20025;-82
2022/06/24 09:24:00;;;;;;;12.40;11.23;;;;;;;23.82;71.00;100475.88;5034883;28;20561;-82
2022/06/24 09:26:40;;;;;;;10.70;9.70;;;;;;;23.59;73.16;100470.31;5039946;28;20433;-82
2022/06/24 09:29:10;;;;;;;11.27;10.18;;;;;;;23.79;71.28;100470.81;5036152;28;20037;-82
2022/06/24 09:31:36;;;;;;;11.30;9.27;;;;;;;24.67;67.91;100469.84;5034719;28;20128;-82
2022/06/24 09:34:06;;;;;;;10.93;9.90;;;;;;;25.46;66.34;100478.66;5040198;28;20029;-82
2022/06/24 09:36:33;;;;;;;9.10;7.95;;;;;;;26.22;61.77;100465.81;5041819;28;20039;-83
2022/06/24 09:39:02;;;;;;;9.48;7.82;;;;;;;26.98;60.71;100473.69;5043540;28;20143;-81
2022/06/24 09:41:28;;;;;;;8.40;7.03;;;;;;;26.98;59.90;100476.41;5046990;28;20041;-83
2022/06/24 09:43:56;;;;;;;8.02;6.88;;;;;;;27.27;59.10;100473.59;5030589;28;20052;-82
2022/06/24 09:46:23;;;;;;;7.45;6.68;;;;;;;28.01;56.60;100472.31;5046068;28;20032;-81
2022/06/24 09:48:53;;;;;;;7.75;7.03;;;;;;;28.28;57.68;100468.66;5047017;28;20098;-81
2022/06/24 09:51:19;;;;;;;8.73;7.78;;;;;;;28.77;52.99;100470.38;5046428;28;20033;-82
2022/06/24 09:53:45;;;;;;;8.07;7.32;;;;;;;28.57;53.38;100471.34;5049355;28;20494;-82
2022/06/24 09:56:11;;;;;;;7.70;6.95;;;;;;;27.67;54.87;100479.38;5048697;28;20086;-81
2022/06/24 09:58:39;;;;;;;7.15;6.45;;;;;;;27.29;55.77;100473.38;5038569;28;20025;-82
2022/06/24 10:01:05;;;;;;;7.20;6.43;;;;;;;27.48;54.97;100469.13;5039442;28;20063;-82
2022/06/24 10:03:32;;;;;;;7.43;6.78;;;;;;;26.94;55.17;100466.91;5046483;28;20025;-83
2022/06/24 10:06:04;;;;;;;7.38;6.30;;;;;;;26.20;58.13;100470.59;5040725;28;20083;-84
2022/06/24 10:08:33;;;;;;;6.28;5.68;;;;;;;27.33;55.17;100473.84;5040245;28;20347;-84
2022/06/24 10:11:00;;;;;;;6.70;5.88;;;;;;;29.31;53.01;100470.50;5044752;28;20025;-84
2022/06/24 10:13:28;;;;;;;6.43;5.80;;;;;;;29.40;49.32;100470.09;5048959;28;20059;-84
2022/06/24 10:15:56;;;;;;;6.20;5.60;;;;;;;29.12;49.76;100467.50;5035060;28;20029;-83
2022/06/24 10:18:27;;;;;;;6.22;5.47;;;;;;;27.98;52.88;100480.91;5049544;28;20098;-83
2022/06/24 10:20:58;;;;;;;5.50;5.00;;;;;;;26.77;55.67;100469.03;5047128;28;20033;-83
2022/06/24 10:23:48;;;;;;;5.00;4.60;;;;;;;26.58;56.70;100486.84;5049192;28;20050;-83
2022/06/24 10:26:30;;;;;;;6.80;4.95;;;;;;;26.86;56.02;100478.78;5042887;28;20549;-84
2022/06/24 10:29:03;;;;;;;6.05;5.47;;;;;;;26.16;56.29;100495.72;5050646;28;20475;-83
2022/06/24 10:31:56;;;;;;;;;;;;;;;25.59;60.85;100502.56;5047601;28;20029;-83
2022/06/24 10:34:28;;;;;;;6.68;5.50;;;;;;;23.97;61.50;100496.94;5050044;28;20333;-83
2022/06/24 10:36:56;;;;;;;6.07;5.47;;;;;;;23.28;65.27;100497.31;5047750;28;20040;-83
2022/06/24 10:39:22;;;;;;;6.60;5.95;;;;;;;22.92;67.47;100498.63;5049411;28;20090;-83
2022/06/24 10:41:59;;;;;;;5.95;5.35;;;;;;;22.85;68.86;100507.38;5032429;28;20052;-83
2022/06/24 10:44:26;;;;;;;5.90;5.32;;;;;;;22.85;69.63;100504.66;5040696;28;20305;-83
2022/06/24 10:47:27;;;;;;;5.88;5.38;;;;;;;22.72;69.79;100517.84;5050379;28;20039;-83
2022/06/24 10:49:55;;;;;;;2.38;2.17;;;;;;;22.03;66.15;100525.13;5040216;28;21207;-82
2022/06/24 10:52:35;;;;;;;2.10;1.90;;;;;;;21.68;68.51;100538.75;5033342;28;20112;-83
2022/06/24 10:55:21;;;;;;;2.78;1.90;;;;;;;21.21;72.72;100539.84;5048530;28;20538;-82
2022/06/24 10:57:51;;;;;;;2.47;2.05;;;;;;;20.23;81.79;100525.16;5052031;28;20032;-82
2022/06/24 11:00:29;;;;;;;4.32;2.25;;;;;;;19.37;84.65;100517.03;5050591;28;20100;-80
2022/06/24 11:03:03;;;;;;;5.43;2.30;;;;;;;18.88;87.78;100518.00;5052101;28;20172;-81
2022/06/24 11:05:34;;;;;;;6.20;2.58;;;;;;;18.57;91.85;100511.81;5038115;28;20025;-82
2022/06/24 11:08:00;;;;;;;2.70;2.40;;;;;;;18.55;94.36;100522.69;5044950;28;20490;-82
2022/06/24 11:10:31;;;;;;;4.05;2.38;;;;;;;18.48;95.63;100508.09;5042111;28;20033;-81
2022/06/24 11:12:59;;;;;;;2.40;2.20;;;;;;;18.48;94.37;100500.00;5047213;28;20500;-81
2022/06/24 11:15:45;;;;;;;4.30;2.50;;;;;;;18.67;96.14;100501.88;5040832;28;20029;-81
2022/06/24 11:18:32;;;;;;;2.42;2.22;;;;;;;18.85;94.84;100505.66;5048261;28;20497;-81
2022/06/24 11:21:03;;;;;;;4.20;2.75;;;;;;;19.30;94.29;100506.94;5045034;28;20052;-82